Time;durP1;ratioP1;P1;durP2;ratioP2;P2;SDS_P1;SDS_P2;PMS_P1;PMS_P2;Temp;Humidity;BMP_temperature;BMP_pressure;BME280_temperature;BME280_humidity;BME280_pressure;Samples;Min_cycle;Max_cycle;Signal;HPM_P1;HPM_P2
2021/08/21 00:00:27;;;;;;;12.73;8.38;;;;;;;;;;1083695;39;20112;-58
2021/08/21 00:01:31;;;;;;;12.02;8.35;;;;;;;;;;1083264;54;20031;-58
2021/08/21 00:02:33;;;;;;;10.25;7.93;;;;;;;;;;1083345;54;20027;-58
2021/08/21 00:03:36;;;;;;;11.20;8.15;;;;;;;;;;1083258;47;20033;-58
2021/08/21 00:04:40;;;;;;;11.90;8.52;;;;;;;;;;1083302;54;20034;-58
2021/08/21 00:05:41;;;;;;;11.57;8.68;;;;;;;;;;1083276;54;20031;-58
2021/08/21 00:06:45;;;;;;;14.05;8.15;;;;;;;;;;1083309;54;20031;-58
2021/08/21 00:07:46;;;;;;;12.85;8.80;;;;;;;;;;1083285;54;20034;-58
2021/08/21 00:08:58;;;;;;;12.32;9.23;;;;;;;;;;1083296;54;20037;-58
2021/08/21 00:09:59;;;;;;;11.85;8.63;;;;;;;;;;1084021;31;20516;-58
2021/08/21 00:11:05;;;;;;;15.30;8.82;;;;;;;;;;1083298;54;20027;-58
2021/08/21 00:12:07;;;;;;;12.40;8.77;;;;;;;;;;1083260;54;20038;-58
2021/08/21 00:13:10;;;;;;;13.35;8.57;;;;;;;;;;1083082;54;20030;-58
2021/08/21 00:14:11;;;;;;;12.48;8.73;;;;;;;;;;1083108;54;20038;-58
2021/08/21 00:15:19;;;;;;;12.52;8.68;;;;;;;;;;1083303;54;20034;-58
2021/08/21 00:16:20;;;;;;;13.70;8.38;;;;;;;;;;1083304;54;20030;-58
2021/08/21 00:17:23;;;;;;;13.10;8.90;;;;;;;;;;1083332;54;20042;-58
2021/08/21 00:18:24;;;;;;;11.52;8.18;;;;;;;;;;1083237;54;20026;-58
2021/08/21 00:19:28;;;;;;;13.48;7.95;;;;;;;;;;1083276;54;20038;-58
2021/08/21 00:20:32;;;;;;;14.05;8.95;;;;;;;;;;1083268;54;20030;-58
2021/08/21 00:21:33;;;;;;;11.52;8.32;;;;;;;;;;1083255;54;20026;-58
2021/08/21 00:22:36;;;;;;;16.75;8.90;;;;;;;;;;1083262;54;20049;-58
2021/08/21 00:23:37;;;;;;;14.10;8.85;;;;;;;;;;1083251;54;20065;-58
2021/08/21 00:24:41;;;;;;;10.52;8.30;;;;;;;;;;1083240;54;20026;-58
2021/08/21 00:25:42;;;;;;;15.00;9.55;;;;;;;;;;1083256;54;20023;-58
2021/08/21 00:26:48;;;;;;;13.63;9.80;;;;;;;;;;1083240;54;20033;-58
2021/08/21 00:27:49;;;;;;;14.07;9.18;;;;;;;;;;1083230;54;20026;-58
2021/08/21 00:28:53;;;;;;;12.10;9.07;;;;;;;;;;1083247;54;20052;-58
2021/08/21 00:29:54;;;;;;;12.30;8.80;;;;;;;;;;1083298;54;20034;-58
2021/08/21 00:30:57;;;;;;;12.95;8.70;;;;;;;;;;1083166;54;20027;-58
2021/08/21 00:31:58;;;;;;;13.57;9.60;;;;;;;;;;1083242;54;20122;-58
2021/08/21 00:33:02;;;;;;;12.45;7.97;;;;;;;;;;1083214;54;20033;-58
2021/08/21 00:34:03;;;;;;;13.10;8.75;;;;;;;;;;1083275;54;20057;-58
2021/08/21 00:35:08;;;;;;;11.35;8.40;;;;;;;;;;1083176;54;20033;-58
2021/08/21 00:36:09;;;;;;;11.32;8.23;;;;;;;;;;1082935;54;20022;-58
2021/08/21 00:37:13;;;;;;;11.95;8.98;;;;;;;;;;1082988;54;20031;-58
2021/08/21 00:38:13;;;;;;;13.30;8.40;;;;;;;;;;1083242;54;20544;-58
2021/08/21 00:39:17;;;;;;;10.85;8.27;;;;;;;;;;1083218;54;20053;-58
2021/08/21 00:40:18;;;;;;;12.07;8.57;;;;;;;;;;1083247;54;20023;-58
2021/08/21 00:41:22;;;;;;;11.05;8.52;;;;;;;;;;1083662;39;20419;-58
2021/08/21 00:42:25;;;;;;;14.98;8.55;;;;;;;;;;1083188;54;20050;-58
2021/08/21 00:43:31;;;;;;;10.85;8.30;;;;;;;;;;1083181;54;20050;-58
2021/08/21 00:44:32;;;;;;;11.80;8.80;;;;;;;;;;1083258;54;20081;-58
2021/08/21 00:45:36;;;;;;;13.00;8.45;;;;;;;;;;1083248;47;20027;-58
2021/08/21 00:47:03;;;;;;;11.68;8.32;;;;;;;;;;1083259;54;20049;-58
2021/08/21 00:48:05;;;;;;;11.75;8.70;;;;;;;;;;1083325;54;20034;-58
2021/08/21 00:49:08;;;;;;;14.13;9.07;;;;;;;;;;1083265;54;20026;-58
2021/08/21 00:50:10;;;;;;;11.77;8.88;;;;;;;;;;1083229;54;20125;-57
2021/08/21 00:51:13;;;;;;;12.73;8.80;;;;;;;;;;1083228;54;20564;-58
2021/08/21 00:52:16;;;;;;;13.15;9.10;;;;;;;;;;1083648;39;20448;-58
2021/08/21 00:53:22;;;;;;;14.48;9.35;;;;;;;;;;1083384;39;20421;-58
2021/08/21 00:54:23;;;;;;;11.93;9.07;;;;;;;;;;1083181;54;20114;-56
2021/08/21 00:55:27;;;;;;;12.13;8.70;;;;;;;;;;1083165;54;20563;-57
2021/08/21 00:56:28;;;;;;;14.07;9.10;;;;;;;;;;1083202;54;20057;-56
2021/08/21 00:57:34;;;;;;;11.98;9.32;;;;;;;;;;1082895;47;20030;-56
2021/08/21 00:58:36;;;;;;;14.70;8.98;;;;;;;;;;1083079;54;20027;-55
2021/08/21 00:59:42;;;;;;;12.35;8.77;;;;;;;;;;1083244;54;20037;-57
2021/08/21 01:00:43;;;;;;;16.70;9.40;;;;;;;;;;1083291;54;20030;-57
2021/08/21 01:01:46;;;;;;;12.35;9.02;;;;;;;;;;1083207;54;20031;-58
2021/08/21 01:02:47;;;;;;;13.52;8.55;;;;;;;;;;1083206;54;20600;-57
2021/08/21 01:03:51;;;;;;;11.70;8.02;;;;;;;;;;1083211;54;20030;-58
2021/08/21 01:04:54;;;;;;;11.73;8.65;;;;;;;;;;1083175;54;20030;-57
2021/08/21 01:05:59;;;;;;;13.32;8.70;;;;;;;;;;1083168;54;20030;-58
2021/08/21 01:07:00;;;;;;;12.32;8.65;;;;;;;;;;1083598;39;20428;-58
2021/08/21 01:08:03;;;;;;;11.63;8.85;;;;;;;;;;1083191;54;20037;-56
2021/08/21 01:09:05;;;;;;;13.55;8.68;;;;;;;;;;1083168;54;20532;-58
2021/08/21 01:10:12;;;;;;;11.73;9.30;;;;;;;;;;1083179;54;20034;-58
2021/08/21 01:11:13;;;;;;;12.40;9.02;;;;;;;;;;1083205;54;20042;-58
2021/08/21 01:12:18;;;;;;;12.68;8.80;;;;;;;;;;1083181;54;20030;-58
2021/08/21 01:13:22;;;;;;;11.35;8.75;;;;;;;;;;1083221;54;20041;-58
2021/08/21 01:14:27;;;;;;;15.32;9.48;;;;;;;;;;1083124;54;20031;-58
2021/08/21 01:15:28;;;;;;;15.65;10.20;;;;;;;;;;1083179;46;20053;-58
2021/08/21 01:16:38;;;;;;;12.43;9.38;;;;;;;;;;1083157;54;20031;-58
2021/08/21 01:17:40;;;;;;;12.32;8.50;;;;;;;;;;1083166;54;20536;-58
2021/08/21 01:18:44;;;;;;;13.98;9.68;;;;;;;;;;1083187;54;20030;-58
2021/08/21 01:19:48;;;;;;;15.25;9.70;;;;;;;;;;1083143;54;20026;-57
2021/08/21 01:20:51;;;;;;;12.00;8.55;;;;;;;;;;1083200;54;20030;-58
2021/08/21 01:21:52;;;;;;;12.65;9.20;;;;;;;;;;1083173;54;20054;-58
2021/08/21 01:22:56;;;;;;;12.70;9.13;;;;;;;;;;1083168;54;20034;-58
2021/08/21 01:23:57;;;;;;;11.40;8.82;;;;;;;;;;1084003;31;20525;-58
2021/08/21 01:25:01;;;;;;;14.48;9.18;;;;;;;;;;1083068;54;20026;-58
2021/08/21 01:26:03;;;;;;;12.95;9.55;;;;;;;;;;1083130;54;20584;-58
2021/08/21 01:27:09;;;;;;;13.68;9.38;;;;;;;;;;1083159;54;20049;-58
2021/08/21 01:28:13;;;;;;;11.02;9.15;;;;;;;;;;1083203;54;20049;-57
2021/08/21 01:29:14;;;;;;;13.02;8.90;;;;;;;;;;1083139;54;20026;-57
2021/08/21 01:30:18;;;;;;;13.48;9.23;;;;;;;;;;1083157;54;20037;-58
2021/08/21 01:31:19;;;;;;;15.27;9.60;;;;;;;;;;1082841;47;20046;-58
2021/08/21 01:32:24;;;;;;;13.40;9.88;;;;;;;;;;1082845;54;20026;-58
2021/08/21 01:33:25;;;;;;;12.57;8.57;;;;;;;;;;1083087;54;20126;-58
2021/08/21 01:34:28;;;;;;;12.75;9.45;;;;;;;;;;1083110;54;20034;-58
2021/08/21 01:35:32;;;;;;;11.93;8.90;;;;;;;;;;1083135;54;20049;-58
2021/08/21 01:36:39;;;;;;;12.95;9.10;;;;;;;;;;1083142;54;20027;-58
2021/08/21 01:37:42;;;;;;;12.50;8.65;;;;;;;;;;1083195;54;20070;-58
2021/08/21 01:38:56;;;;;;;11.77;8.80;;;;;;;;;;1083875;31;20516;-58
2021/08/21 01:40:00;;;;;;;13.48;8.90;;;;;;;;;;1083168;54;20027;-58
2021/08/21 01:41:01;;;;;;;13.30;9.07;;;;;;;;;;1083211;54;20026;-57
2021/08/21 01:42:06;;;;;;;14.40;9.60;;;;;;;;;;1083171;54;20036;-58
2021/08/21 01:43:12;;;;;;;12.77;8.60;;;;;;;;;;1083099;54;20126;-58
2021/08/21 01:44:15;;;;;;;12.55;8.43;;;;;;;;;;1083811;31;20512;-58
2021/08/21 01:45:19;;;;;;;11.27;8.60;;;;;;;;;;1083125;54;20645;-58
2021/08/21 01:46:20;;;;;;;11.00;8.82;;;;;;;;;;1083131;54;20540;-58
2021/08/21 01:47:24;;;;;;;12.63;9.60;;;;;;;;;;1083564;39;20433;-58
2021/08/21 01:48:25;;;;;;;12.70;8.95;;;;;;;;;;1083084;54;20110;-58
2021/08/21 01:49:28;;;;;;;17.02;8.90;;;;;;;;;;1083575;39;20444;-58
2021/08/21 01:50:32;;;;;;;12.38;8.57;;;;;;;;;;1083135;54;20030;-58
2021/08/21 01:51:33;;;;;;;13.38;8.88;;;;;;;;;;1083127;54;20061;-58
2021/08/21 01:52:37;;;;;;;11.88;8.80;;;;;;;;;;1083207;54;20030;-58
2021/08/21 01:53:38;;;;;;;10.32;8.05;;;;;;;;;;1082734;47;20595;-58
2021/08/21 01:54:41;;;;;;;11.50;8.60;;;;;;;;;;1082837;54;20078;-58
2021/08/21 01:55:44;;;;;;;12.70;8.38;;;;;;;;;;1082884;54;20543;-58
2021/08/21 01:56:49;;;;;;;11.98;8.60;;;;;;;;;;1082876;54;20070;-58
2021/08/21 01:57:50;;;;;;;12.35;8.32;;;;;;;;;;1083087;54;20029;-58
2021/08/21 01:58:56;;;;;;;13.45;9.35;;;;;;;;;;1083127;54;20552;-58
2021/08/21 01:59:57;;;;;;;12.23;9.25;;;;;;;;;;1083144;54;20038;-58
2021/08/21 02:01:03;;;;;;;15.45;8.88;;;;;;;;;;1083636;39;20432;-58
2021/08/21 02:02:06;;;;;;;10.63;8.40;;;;;;;;;;1083116;54;20030;-58
2021/08/21 02:03:09;;;;;;;12.63;9.30;;;;;;;;;;1083128;47;20030;-58
2021/08/21 02:04:10;;;;;;;13.07;8.95;;;;;;;;;;1083037;54;20045;-58
2021/08/21 02:05:14;;;;;;;14.10;9.77;;;;;;;;;;1083095;54;20030;-58
2021/08/21 02:06:15;;;;;;;14.50;9.20;;;;;;;;;;1083526;39;20537;-58
2021/08/21 02:07:19;;;;;;;13.60;8.98;;;;;;;;;;1083110;54;20038;-58
2021/08/21 02:08:21;;;;;;;15.27;9.25;;;;;;;;;;1083793;31;20517;-58
2021/08/21 02:09:27;;;;;;;10.98;8.57;;;;;;;;;;1083126;54;20038;-58
2021/08/21 02:10:28;;;;;;;13.07;9.10;;;;;;;;;;1083141;54;20535;-58
2021/08/21 02:11:31;;;;;;;11.63;8.55;;;;;;;;;;1083037;54;20037;-58
2021/08/21 02:12:33;;;;;;;12.50;8.40;;;;;;;;;;1083148;54;20113;-58
2021/08/21 02:13:37;;;;;;;12.82;8.77;;;;;;;;;;1083035;54;20033;-58
2021/08/21 02:14:40;;;;;;;11.73;8.48;;;;;;;;;;1083032;54;20053;-58
2021/08/21 02:15:44;;;;;;;13.13;8.40;;;;;;;;;;1083072;54;20030;-58
2021/08/21 02:16:49;;;;;;;12.10;8.63;;;;;;;;;;1083085;54;20022;-58
2021/08/21 02:17:53;;;;;;;11.98;8.73;;;;;;;;;;1083086;54;20037;-58
2021/08/21 02:18:53;;;;;;;12.52;8.20;;;;;;;;;;1083060;54;20027;-58
2021/08/21 02:19:57;;;;;;;12.05;8.52;;;;;;;;;;1082768;54;20061;-58
2021/08/21 02:20:58;;;;;;;16.45;9.20;;;;;;;;;;1082863;54;20551;-58
2021/08/21 02:22:04;;;;;;;11.65;8.43;;;;;;;;;;1083093;54;20038;-58
2021/08/21 02:23:05;;;;;;;13.13;8.55;;;;;;;;;;1083090;54;20053;-57
2021/08/21 02:24:10;;;;;;;13.43;9.50;;;;;;;;;;1082988;54;20030;-59
2021/08/21 02:25:13;;;;;;;15.43;9.25;;;;;;;;;;1083139;54;20045;-58
2021/08/21 02:26:17;;;;;;;11.77;8.88;;;;;;;;;;1083054;54;20031;-58
2021/08/21 02:27:22;;;;;;;12.48;8.65;;;;;;;;;;1083228;46;20137;-58
2021/08/21 02:28:26;;;;;;;13.63;9.32;;;;;;;;;;1083066;54;20622;-59
2021/08/21 02:29:27;;;;;;;14.25;8.77;;;;;;;;;;1083028;54;20118;-58
2021/08/21 02:30:33;;;;;;;14.40;8.95;;;;;;;;;;1083782;31;20540;-58
2021/08/21 02:31:35;;;;;;;12.57;9.07;;;;;;;;;;1082996;54;20145;-58
2021/08/21 02:32:39;;;;;;;12.15;8.85;;;;;;;;;;1083101;54;20034;-58
2021/08/21 02:33:40;;;;;;;13.85;9.15;;;;;;;;;;1083005;54;20027;-58
2021/08/21 02:34:43;;;;;;;11.70;8.75;;;;;;;;;;1083107;54;20544;-58
2021/08/21 02:35:44;;;;;;;13.75;8.40;;;;;;;;;;1083035;54;20544;-58
2021/08/21 02:36:48;;;;;;;13.63;8.63;;;;;;;;;;1083163;54;20026;-58
2021/08/21 02:37:49;;;;;;;12.57;8.85;;;;;;;;;;1083387;54;20038;-58
2021/08/21 02:38:53;;;;;;;12.38;8.48;;;;;;;;;;1083403;54;20077;-58
2021/08/21 02:39:54;;;;;;;11.88;8.40;;;;;;;;;;1083363;54;20029;-58
2021/08/21 02:40:58;;;;;;;11.73;8.40;;;;;;;;;;1083418;54;20030;-58
2021/08/21 02:41:59;;;;;;;11.88;8.45;;;;;;;;;;1083374;54;20026;-58
2021/08/21 02:43:03;;;;;;;10.90;8.23;;;;;;;;;;1083388;54;20030;-58
2021/08/21 02:44:04;;;;;;;12.43;8.52;;;;;;;;;;1083422;54;20595;-58
2021/08/21 02:45:10;;;;;;;14.55;8.90;;;;;;;;;;1083368;54;20042;-58
2021/08/21 02:46:13;;;;;;;10.45;8.48;;;;;;;;;;1083417;54;20030;-58
2021/08/21 02:47:18;;;;;;;13.02;9.55;;;;;;;;;;1083400;54;20030;-58
2021/08/21 02:48:19;;;;;;;14.10;8.95;;;;;;;;;;1083394;54;20057;-58
2021/08/21 02:49:22;;;;;;;13.00;8.60;;;;;;;;;;1083385;54;20558;-58
2021/08/21 02:50:24;;;;;;;10.73;8.55;;;;;;;;;;1083036;47;20062;-58
2021/08/21 02:51:27;;;;;;;12.73;8.35;;;;;;;;;;1083114;54;20069;-58
2021/08/21 02:52:28;;;;;;;11.95;8.10;;;;;;;;;;1083366;54;20038;-58
2021/08/21 02:53:33;;;;;;;12.70;8.02;;;;;;;;;;1083347;54;20030;-58
2021/08/21 02:54:34;;;;;;;10.10;8.23;;;;;;;;;;1083307;54;20050;-58
2021/08/21 02:55:37;;;;;;;14.20;8.57;;;;;;;;;;1083791;39;20412;-58
2021/08/21 02:56:41;;;;;;;11.68;8.23;;;;;;;;;;1083365;54;20035;-58
2021/08/21 02:57:42;;;;;;;12.30;8.07;;;;;;;;;;1083785;39;20499;-58
2021/08/21 02:58:46;;;;;;;14.10;9.35;;;;;;;;;;1083392;54;20027;-58
2021/08/21 02:59:50;;;;;;;11.90;8.48;;;;;;;;;;1083354;54;20030;-58
2021/08/21 03:00:50;;;;;;;13.13;8.38;;;;;;;;;;1083395;54;20034;-58
2021/08/21 03:01:57;;;;;;;13.32;9.05;;;;;;;;;;1083567;54;20034;-58
2021/08/21 03:02:58;;;;;;;13.02;8.80;;;;;;;;;;1083364;54;20022;-58
2021/08/21 03:04:02;;;;;;;13.82;8.82;;;;;;;;;;1083392;54;20121;-58
2021/08/21 03:05:04;;;;;;;11.60;8.38;;;;;;;;;;1083284;54;20121;-58
2021/08/21 03:06:08;;;;;;;13.60;8.82;;;;;;;;;;1083415;54;20026;-58
2021/08/21 03:07:09;;;;;;;11.27;8.20;;;;;;;;;;1083334;54;20048;-58
2021/08/21 03:08:13;;;;;;;12.52;8.40;;;;;;;;;;1083385;54;20026;-58
2021/08/21 03:09:14;;;;;;;13.45;8.75;;;;;;;;;;1083327;54;20033;-58
2021/08/21 03:10:17;;;;;;;13.93;8.70;;;;;;;;;;1083390;54;20026;-58
2021/08/21 03:11:18;;;;;;;11.80;8.50;;;;;;;;;;1083337;54;20038;-58
2021/08/21 03:12:22;;;;;;;12.52;8.82;;;;;;;;;;1083395;54;20057;-58
2021/08/21 03:13:23;;;;;;;15.20;8.50;;;;;;;;;;1083331;54;20605;-58
2021/08/21 03:14:27;;;;;;;10.27;8.00;;;;;;;;;;1083236;54;20034;-59
2021/08/21 03:15:28;;;;;;;13.48;8.50;;;;;;;;;;1083316;54;20026;-58
2021/08/21 03:16:32;;;;;;;10.73;8.85;;;;;;;;;;1083761;39;20125;-58
2021/08/21 03:17:36;;;;;;;13.82;8.57;;;;;;;;;;1083346;54;20045;-58
2021/08/21 03:18:39;;;;;;;12.70;8.63;;;;;;;;;;1083408;54;20033;-58
2021/08/21 03:19:42;;;;;;;11.60;8.48;;;;;;;;;;1083320;54;20023;-58
2021/08/21 03:20:46;;;;;;;12.57;8.43;;;;;;;;;;1083736;39;20529;-58
2021/08/21 03:21:47;;;;;;;13.07;8.45;;;;;;;;;;1083364;54;20122;-58
2021/08/21 03:22:50;;;;;;;12.02;8.82;;;;;;;;;;1083331;54;20027;-58
2021/08/21 03:23:51;;;;;;;16.05;9.23;;;;;;;;;;1083053;54;20026;-58
2021/08/21 03:24:55;;;;;;;11.75;8.95;;;;;;;;;;1083112;54;20031;-58
2021/08/21 03:25:56;;;;;;;10.15;7.78;;;;;;;;;;1083046;54;20037;-58
2021/08/21 03:26:59;;;;;;;13.95;8.73;;;;;;;;;;1083087;54;20026;-58
2021/08/21 03:28:00;;;;;;;11.13;8.10;;;;;;;;;;1083318;54;20057;-58
2021/08/21 03:29:04;;;;;;;11.32;7.95;;;;;;;;;;1083359;54;20559;-58
2021/08/21 03:30:07;;;;;;;13.00;9.18;;;;;;;;;;1083378;54;20018;-58
2021/08/21 03:31:10;;;;;;;11.63;8.63;;;;;;;;;;1083358;54;20027;-58
2021/08/21 03:32:15;;;;;;;11.52;8.20;;;;;;;;;;1083351;54;20042;-58
2021/08/21 03:33:21;;;;;;;11.38;7.63;;;;;;;;;;1083330;54;20038;-58
2021/08/21 03:34:24;;;;;;;12.15;8.00;;;;;;;;;;1083237;54;20026;-58
2021/08/21 03:35:28;;;;;;;12.07;8.45;;;;;;;;;;1083735;39;20460;-58
2021/08/21 03:36:32;;;;;;;12.18;8.07;;;;;;;;;;1083294;54;20034;-58
2021/08/21 03:37:33;;;;;;;11.13;8.15;;;;;;;;;;1083334;54;20137;-58
2021/08/21 03:38:37;;;;;;;11.23;8.13;;;;;;;;;;1083320;54;20027;-58
2021/08/21 03:39:39;;;;;;;13.80;8.57;;;;;;;;;;1083367;54;20057;-58
2021/08/21 03:40:42;;;;;;;12.48;8.40;;;;;;;;;;1083322;54;20039;-58
2021/08/21 03:41:43;;;;;;;13.32;8.65;;;;;;;;;;1083265;54;20038;-58
2021/08/21 03:42:47;;;;;;;13.13;8.85;;;;;;;;;;1083754;39;20433;-58
2021/08/21 03:43:48;;;;;;;10.63;8.07;;;;;;;;;;1083349;54;20046;-58
2021/08/21 03:44:52;;;;;;;13.35;8.20;;;;;;;;;;1083248;54;20158;-58
2021/08/21 03:45:53;;;;;;;14.63;8.02;;;;;;;;;;1083366;54;20030;-58
2021/08/21 03:46:57;;;;;;;9.40;7.43;;;;;;;;;;1083293;54;20030;-58
2021/08/21 03:47:58;;;;;;;11.77;7.72;;;;;;;;;;1083286;54;20038;-58
2021/08/21 03:49:04;;;;;;;11.48;7.93;;;;;;;;;;1083314;54;20029;-58
2021/08/21 03:50:06;;;;;;;10.80;7.53;;;;;;;;;;1083309;54;20026;-58
2021/08/21 03:51:09;;;;;;;12.93;8.25;;;;;;;;;;1083307;54;20567;-58
2021/08/21 03:52:10;;;;;;;11.27;7.75;;;;;;;;;;1083362;54;20049;-58
2021/08/21 03:53:14;;;;;;;12.98;8.10;;;;;;;;;;1083342;54;20037;-58
2021/08/21 03:54:15;;;;;;;11.95;7.88;;;;;;;;;;1083214;54;20039;-58
2021/08/21 03:55:19;;;;;;;13.52;8.20;;;;;;;;;;1083273;54;20030;-58
2021/08/21 03:56:20;;;;;;;11.82;7.97;;;;;;;;;;1083313;54;20126;-58
2021/08/21 03:57:23;;;;;;;12.30;7.90;;;;;;;;;;1083308;54;20031;-58
2021/08/21 03:58:24;;;;;;;12.95;7.40;;;;;;;;;;1083301;54;20030;-58
2021/08/21 03:59:28;;;;;;;12.88;7.95;;;;;;;;;;1083283;54;20540;-58
2021/08/21 04:00:29;;;;;;;11.55;7.95;;;;;;;;;;1082944;54;20057;-58
2021/08/21 04:01:32;;;;;;;13.18;8.23;;;;;;;;;;1083018;54;20026;-58
2021/08/21 04:02:34;;;;;;;11.43;8.27;;;;;;;;;;1083137;54;20034;-58
2021/08/21 04:03:37;;;;;;;11.60;8.10;;;;;;;;;;1083033;47;20026;-58
2021/08/21 04:04:41;;;;;;;12.93;7.85;;;;;;;;;;1082984;54;20021;-58
2021/08/21 04:05:45;;;;;;;10.43;7.65;;;;;;;;;;1083742;39;20441;-58
2021/08/21 04:06:46;;;;;;;10.95;7.60;;;;;;;;;;1083318;54;20029;-58
2021/08/21 04:07:49;;;;;;;10.60;7.40;;;;;;;;;;1083272;54;20031;-58
2021/08/21 04:08:50;;;;;;;11.93;7.85;;;;;;;;;;1083335;54;20142;-58
2021/08/21 04:09:54;;;;;;;13.48;7.80;;;;;;;;;;1083258;54;20026;-57
2021/08/21 04:10:55;;;;;;;11.68;8.07;;;;;;;;;;1083252;54;20030;-58
2021/08/21 04:11:58;;;;;;;11.63;7.80;;;;;;;;;;1083288;54;20030;-58
2021/08/21 04:13:02;;;;;;;11.40;7.68;;;;;;;;;;1083298;54;20027;-58
2021/08/21 04:14:03;;;;;;;10.85;8.02;;;;;;;;;;1083262;54;20058;-58
2021/08/21 04:15:08;;;;;;;12.90;8.00;;;;;;;;;;1083275;54;20555;-58
2021/08/21 04:16:09;;;;;;;12.23;7.90;;;;;;;;;;1083276;54;20176;-58
2021/08/21 04:17:12;;;;;;;10.63;8.18;;;;;;;;;;1083266;54;20122;-59
2021/08/21 04:18:17;;;;;;;11.27;8.00;;;;;;;;;;1083246;54;20649;-58
2021/08/21 04:19:18;;;;;;;11.55;7.78;;;;;;;;;;1083258;54;20026;-58
2021/08/21 04:20:24;;;;;;;10.63;7.45;;;;;;;;;;1083674;39;20421;-58
2021/08/21 04:21:25;;;;;;;12.07;7.35;;;;;;;;;;1083302;54;20061;-58
2021/08/21 04:22:28;;;;;;;12.05;8.30;;;;;;;;;;1083235;54;20045;-58
2021/08/21 04:23:29;;;;;;;10.43;7.35;;;;;;;;;;1083269;54;20023;-58
2021/08/21 04:24:33;;;;;;;11.32;7.38;;;;;;;;;;1083180;54;20035;-58
2021/08/21 04:25:36;;;;;;;12.23;7.22;;;;;;;;;;1083289;54;20258;-58
2021/08/21 04:26:37;;;;;;;11.90;7.93;;;;;;;;;;1083265;54;20057;-55
2021/08/21 04:27:41;;;;;;;11.48;7.57;;;;;;;;;;1083246;54;20030;-55
2021/08/21 04:28:42;;;;;;;9.50;7.43;;;;;;;;;;1083257;54;20027;-57
2021/08/21 04:29:46;;;;;;;11.73;7.82;;;;;;;;;;1083305;54;20138;-57
2021/08/21 04:30:47;;;;;;;11.85;7.63;;;;;;;;;;1083247;54;20027;-57
2021/08/21 04:31:51;;;;;;;11.80;6.85;;;;;;;;;;1083278;54;20039;-57
2021/08/21 04:32:51;;;;;;;13.60;7.63;;;;;;;;;;1083229;54;20026;-56
2021/08/21 04:33:55;;;;;;;10.55;7.47;;;;;;;;;;1083274;54;20035;-57
2021/08/21 04:34:56;;;;;;;11.60;7.03;;;;;;;;;;1083125;54;20050;-58
2021/08/21 04:36:02;;;;;;;10.82;7.28;;;;;;;;;;1083218;54;20053;-58
2021/08/21 04:37:04;;;;;;;11.93;7.55;;;;;;;;;;1083295;54;20023;-57
2021/08/21 04:38:07;;;;;;;10.48;7.15;;;;;;;;;;1083659;39;20461;-55
2021/08/21 04:39:08;;;;;;;11.75;7.82;;;;;;;;;;1083244;54;20599;-58
2021/08/21 04:40:13;;;;;;;11.27;7.38;;;;;;;;;;1083245;54;20034;-58
2021/08/21 04:41:16;;;;;;;11.63;8.15;;;;;;;;;;1083214;54;20061;-57
2021/08/21 04:42:20;;;;;;;10.45;7.03;;;;;;;;;;1083234;54;20031;-58
2021/08/21 04:43:21;;;;;;;12.75;7.68;;;;;;;;;;1083213;54;20023;-58
2021/08/21 04:44:24;;;;;;;12.93;7.60;;;;;;;;;;1083230;54;20033;-58
2021/08/21 04:45:26;;;;;;;10.68;7.43;;;;;;;;;;1083217;54;20030;-57
2021/08/21 04:46:29;;;;;;;11.60;7.63;;;;;;;;;;1083211;54;20031;-58
2021/08/21 04:47:30;;;;;;;9.30;7.22;;;;;;;;;;1083199;54;20027;-58
2021/08/21 04:48:34;;;;;;;12.18;7.70;;;;;;;;;;1083216;54;20030;-57
2021/08/21 04:49:35;;;;;;;10.60;7.63;;;;;;;;;;1083276;54;20050;-58
2021/08/21 04:50:39;;;;;;;11.88;8.20;;;;;;;;;;1083283;54;20034;-58
2021/08/21 04:51:43;;;;;;;11.23;7.63;;;;;;;;;;1083174;47;20110;-58
2021/08/21 04:52:47;;;;;;;11.95;8.32;;;;;;;;;;1083650;39;20421;-58
2021/08/21 04:53:48;;;;;;;10.77;6.93;;;;;;;;;;1083274;54;20057;-58
2021/08/21 04:54:52;;;;;;;9.65;7.40;;;;;;;;;;1083183;54;20038;-58
2021/08/21 04:55:53;;;;;;;10.50;7.38;;;;;;;;;;1083264;54;20027;-58
2021/08/21 04:56:57;;;;;;;11.40;7.90;;;;;;;;;;1083262;54;20031;-58
2021/08/21 04:58:01;;;;;;;10.02;7.47;;;;;;;;;;1083233;54;20027;-58
2021/08/21 04:59:02;;;;;;;10.90;7.07;;;;;;;;;;1083229;54;20038;-58
2021/08/21 05:00:06;;;;;;;10.40;7.88;;;;;;;;;;1083019;54;20031;-58
2021/08/21 05:01:07;;;;;;;10.38;7.50;;;;;;;;;;1083219;54;20038;-58
2021/08/21 05:02:11;;;;;;;11.43;7.75;;;;;;;;;;1083179;54;20027;-58
2021/08/21 05:03:12;;;;;;;10.35;7.47;;;;;;;;;;1083168;54;20049;-58
2021/08/21 05:04:16;;;;;;;10.88;7.70;;;;;;;;;;1083149;54;20030;-58
2021/08/21 05:05:17;;;;;;;12.23;7.80;;;;;;;;;;1083243;54;20034;-58
2021/08/21 05:06:20;;;;;;;11.18;7.78;;;;;;;;;;1083181;54;20026;-58
2021/08/21 05:07:24;;;;;;;13.63;7.72;;;;;;;;;;1083193;54;20113;-58
2021/08/21 05:08:28;;;;;;;10.95;7.50;;;;;;;;;;1083166;54;20662;-58
2021/08/21 05:09:29;;;;;;;10.25;7.70;;;;;;;;;;1083168;54;20026;-58
2021/08/21 05:10:32;;;;;;;10.65;7.40;;;;;;;;;;1083174;54;20556;-58
2021/08/21 05:11:33;;;;;;;10.25;7.30;;;;;;;;;;1083240;54;20553;-58
2021/08/21 05:12:37;;;;;;;11.60;6.97;;;;;;;;;;1083199;54;20034;-58
2021/08/21 05:13:38;;;;;;;9.63;7.15;;;;;;;;;;1083196;54;20026;-58
2021/08/21 05:14:41;;;;;;;9.95;7.03;;;;;;;;;;1083142;54;20528;-58
2021/08/21 05:15:42;;;;;;;11.35;7.20;;;;;;;;;;1083182;54;20049;-58
2021/08/21 05:16:47;;;;;;;10.20;7.25;;;;;;;;;;1083227;54;20074;-58
2021/08/21 05:17:51;;;;;;;10.20;7.28;;;;;;;;;;1083202;54;20023;-58
2021/08/21 05:18:58;;;;;;;10.10;7.53;;;;;;;;;;1083161;54;20034;-58
2021/08/21 05:20:06;;;;;;;11.70;7.20;;;;;;;;;;1083212;47;20138;-58
2021/08/21 05:21:12;;;;;;;11.15;7.30;;;;;;;;;;1083210;54;20061;-58
2021/08/21 05:22:23;;;;;;;10.85;7.53;;;;;;;;;;1083256;54;20054;-58
2021/08/21 05:23:29;;;;;;;10.20;7.05;;;;;;;;;;1083212;54;20620;-59
2021/08/21 05:24:30;;;;;;;12.43;7.57;;;;;;;;;;1083655;39;20086;-59
2021/08/21 05:25:34;;;;;;;10.30;7.35;;;;;;;;;;1083446;54;20030;-59
2021/08/21 05:26:35;;;;;;;9.52;7.45;;;;;;;;;;1083198;54;20058;-58
2021/08/21 05:27:39;;;;;;;9.75;7.90;;;;;;;;;;1083160;54;20548;-59
2021/08/21 05:28:40;;;;;;;10.07;7.18;;;;;;;;;;1083144;54;20046;-58
2021/08/21 05:29:44;;;;;;;11.15;7.65;;;;;;;;;;1083215;54;20019;-58
2021/08/21 05:30:45;;;;;;;10.13;7.38;;;;;;;;;;1083165;54;20038;-58
2021/08/21 05:31:50;;;;;;;9.82;7.30;;;;;;;;;;1083134;54;20037;-59
2021/08/21 05:32:50;;;;;;;9.13;6.85;;;;;;;;;;1083167;54;20113;-57
2021/08/21 05:33:54;;;;;;;10.45;7.80;;;;;;;;;;1083197;54;20030;-57
2021/08/21 05:34:55;;;;;;;9.90;6.90;;;;;;;;;;1083495;39;20507;-57
2021/08/21 05:35:59;;;;;;;8.60;7.20;;;;;;;;;;1083208;54;20037;-57
2021/08/21 05:37:00;;;;;;;10.30;7.47;;;;;;;;;;1083211;54;20049;-57
2021/08/21 05:38:03;;;;;;;11.30;8.10;;;;;;;;;;1083132;54;20037;-57
2021/08/21 05:39:10;;;;;;;10.18;7.15;;;;;;;;;;1083218;54;20030;-59
2021/08/21 05:40:14;;;;;;;10.48;7.13;;;;;;;;;;1083197;54;20026;-57
2021/08/21 05:41:15;;;;;;;11.90;7.68;;;;;;;;;;1083156;54;20544;-57
2021/08/21 05:42:19;;;;;;;9.43;6.97;;;;;;;;;;1083170;54;20026;-57
2021/08/21 05:43:20;;;;;;;10.60;7.30;;;;;;;;;;1083122;54;20034;-60
2021/08/21 05:44:23;;;;;;;9.80;7.10;;;;;;;;;;1083515;39;20452;-57
2021/08/21 05:45:24;;;;;;;10.10;6.72;;;;;;;;;;1083162;54;20023;-57
2021/08/21 05:46:28;;;;;;;9.25;6.88;;;;;;;;;;1083159;54;20049;-57
2021/08/21 05:47:29;;;;;;;9.25;7.18;;;;;;;;;;1083129;54;20042;-57
2021/08/21 05:48:33;;;;;;;10.93;7.55;;;;;;;;;;1083174;54;20030;-57
2021/08/21 05:49:34;;;;;;;11.43;7.28;;;;;;;;;;1083139;54;20038;-57
2021/08/21 05:50:37;;;;;;;10.98;7.57;;;;;;;;;;1082859;54;20038;-57
2021/08/21 05:51:38;;;;;;;9.00;6.55;;;;;;;;;;1082951;54;20041;-57
2021/08/21 05:52:42;;;;;;;10.82;7.32;;;;;;;;;;1083129;54;20026;-57
2021/08/21 05:53:45;;;;;;;9.48;6.85;;;;;;;;;;1083819;31;20489;-57
2021/08/21 05:54:49;;;;;;;10.48;7.00;;;;;;;;;;1083114;54;20034;-57
2021/08/21 05:55:52;;;;;;;11.55;7.57;;;;;;;;;;1083127;54;20034;-57
2021/08/21 05:56:55;;;;;;;9.57;7.03;;;;;;;;;;1083122;54;20049;-60
2021/08/21 05:57:58;;;;;;;10.00;7.68;;;;;;;;;;1083182;54;20033;-57
2021/08/21 05:59:02;;;;;;;10.68;7.15;;;;;;;;;;1083099;54;20051;-57
2021/08/21 06:00:05;;;;;;;11.48;7.75;;;;;;;;;;1083109;54;20134;-57
2021/08/21 06:01:09;;;;;;;11.20;8.02;;;;;;;;;;1083119;54;20571;-57
2021/08/21 06:02:10;;;;;;;10.15;7.55;;;;;;;;;;1083117;54;20571;-57
2021/08/21 06:03:14;;;;;;;9.93;7.78;;;;;;;;;;1083119;54;20062;-57
2021/08/21 06:04:17;;;;;;;11.57;7.82;;;;;;;;;;1083067;54;20049;-57
2021/08/21 06:05:19;;;;;;;11.18;8.15;;;;;;;;;;1083119;54;20022;-60
2021/08/21 06:06:23;;;;;;;11.52;7.65;;;;;;;;;;1083162;54;20070;-57
2021/08/21 06:07:24;;;;;;;12.57;7.30;;;;;;;;;;1083111;54;20029;-57
2021/08/21 06:08:28;;;;;;;10.30;7.65;;;;;;;;;;1083560;39;20507;-57
2021/08/21 06:09:29;;;;;;;10.20;7.07;;;;;;;;;;1083120;54;20053;-57
2021/08/21 06:10:35;;;;;;;9.85;7.78;;;;;;;;;;1083122;54;20023;-57
2021/08/21 06:11:39;;;;;;;12.38;7.47;;;;;;;;;;1083121;54;20613;-57
2021/08/21 06:12:40;;;;;;;11.68;8.25;;;;;;;;;;1083511;54;20038;-57